Time;durP1;ratioP1;P1;durP2;ratioP2;P2;SDS_P1;SDS_P2;PMS_P1;PMS_P2;Temp;Humidity;BMP_temperature;BMP_pressure;BME280_temperature;BME280_humidity;BME280_pressure;Samples;Min_cycle;Max_cycle;Signal;HPM_P1;HPM_P2
2022/12/22 03:25:55;;;;;;;46.83;38.50;;;8.70;99.90;;;;;;5086778;28;20040;-71
2022/12/22 03:28:26;;;;;;;52.05;37.83;;;8.80;99.90;;;;;;5085397;28;20130;-72
2022/12/22 03:31:01;;;;;;;52.72;39.58;;;8.80;99.90;;;;;;5081667;28;20581;-72
2022/12/22 03:33:29;;;;;;;46.25;37.33;;;8.80;99.90;;;;;;5084730;28;20483;-71
2022/12/22 03:35:55;;;;;;;49.03;37.97;;;8.80;99.90;;;;;;5068463;28;20044;-72
2022/12/22 03:38:20;;;;;;;49.63;37.53;;;8.80;99.90;;;;;;5086776;28;20052;-72
2022/12/22 03:40:46;;;;;;;54.60;39.60;;;8.80;99.90;;;;;;5082501;28;20846;-71
2022/12/22 03:48:43;;;;;;;50.45;36.70;;;8.80;99.90;;;;;;5087406;28;20094;-71
2022/12/22 03:51:09;;;;;;;44.58;36.17;;;8.80;99.90;;;;;;5083200;28;20529;-72
2022/12/22 03:53:35;;;;;;;47.67;37.63;;;8.80;99.90;;;;;;5086934;28;20101;-71
2022/12/22 03:56:01;;;;;;;48.25;36.70;;;8.80;99.90;;;;;;5065606;28;20040;-72
2022/12/22 03:58:27;;;;;;;43.20;35.45;;;8.80;99.90;;;;;;5083275;28;20711;-71
2022/12/22 04:01:05;;;;;;;45.50;37.13;;;8.80;99.90;;;;;;5083882;28;20051;-71
2022/12/22 04:03:31;;;;;;;45.67;36.25;;;8.80;99.90;;;;;;5082537;28;20051;-71
2022/12/22 04:05:56;;;;;;;43.70;35.70;;;8.80;99.90;;;;;;5085225;28;20040;-72
2022/12/22 04:08:22;;;;;;;42.97;35.35;;;8.80;99.90;;;;;;5066461;28;20048;-72
2022/12/22 04:13:32;;;;;;;43.25;34.97;;;8.80;99.90;;;;;;5095767;28;20066;-72
2022/12/22 04:15:57;;;;;;;41.47;34.25;;;8.80;99.90;;;;;;5067353;28;20055;-72
2022/12/22 04:18:23;;;;;;;48.90;36.42;;;8.80;99.90;;;;;;5066956;28;20450;-71
2022/12/22 04:20:48;;;;;;;56.00;37.30;;;8.80;99.90;;;;;;5102561;28;20047;-72
2022/12/22 04:23:14;;;;;;;52.72;37.53;;;8.80;99.90;;;;;;5083603;28;20127;-72
2022/12/22 04:25:39;;;;;;;42.35;34.75;;;8.80;99.90;;;;;;5084643;28;20491;-72
2022/12/22 04:28:05;;;;;;;43.88;33.95;;;8.80;99.90;;;;;;5085446;28;20051;-72
2022/12/22 04:30:31;;;;;;;51.75;36.75;;;8.80;99.90;;;;;;5085392;28;20388;-71
2022/12/22 04:32:56;;;;;;;42.22;34.40;;;8.80;99.90;;;;;;5064202;28;20043;-71
2022/12/22 04:35:22;;;;;;;36.97;32.95;;;8.70;99.90;;;;;;5062592;28;20036;-72
2022/12/22 04:37:47;;;;;;;37.72;32.97;;;8.80;99.90;;;;;;5066316;28;20086;-72
2022/12/22 04:40:13;;;;;;;40.10;33.13;;;8.80;99.90;;;;;;5063410;28;20071;-71
2022/12/22 04:42:39;;;;;;;37.28;32.95;;;8.80;99.90;;;;;;5081293;28;20043;-72
2022/12/22 04:45:05;;;;;;;41.13;34.00;;;8.80;99.90;;;;;;5069536;28;20033;-71
2022/12/22 04:47:31;;;;;;;43.38;35.28;;;8.80;99.90;;;;;;5085882;28;20059;-72
2022/12/22 04:49:56;;;;;;;38.90;33.80;;;8.80;99.90;;;;;;5085248;28;20403;-72
2022/12/22 04:52:22;;;;;;;44.10;36.47;;;8.70;99.90;;;;;;5085886;28;20047;-71
2022/12/22 04:54:48;;;;;;;53.10;38.35;;;8.80;99.90;;;;;;5082096;28;20541;-72
2022/12/22 04:57:13;;;;;;;45.38;35.30;;;8.80;99.90;;;;;;5084718;28;20098;-72
2022/12/22 04:59:39;;;;;;;44.10;34.90;;;8.80;99.90;;;;;;5085231;28;20051;-72
2022/12/22 05:02:05;;;;;;;50.53;37.65;;;8.80;99.90;;;;;;5083346;28;20130;-72
2022/12/22 05:04:31;;;;;;;48.20;37.28;;;8.80;99.90;;;;;;5067153;28;20062;-72
2022/12/22 05:06:56;;;;;;;52.50;37.50;;;8.80;99.90;;;;;;5066669;28;20779;-72
2022/12/22 05:09:22;;;;;;;46.13;35.78;;;8.80;99.90;;;;;;5085301;28;20032;-72
2022/12/22 05:11:48;;;;;;;48.85;36.38;;;8.80;99.90;;;;;;5068020;28;20577;-72
2022/12/22 05:14:13;;;;;;;44.90;36.10;;;8.80;99.90;;;;;;5083172;28;20558;-72
2022/12/22 05:16:39;;;;;;;38.90;34.15;;;8.80;99.90;;;;;;5066052;28;20083;-72
2022/12/22 05:19:05;;;;;;;41.85;35.58;;;8.90;99.90;;;;;;5085033;28;20029;-72
2022/12/22 05:21:30;;;;;;;44.25;36.22;;;8.80;99.90;;;;;;5082595;28;20111;-72
2022/12/22 05:23:56;;;;;;;45.35;35.38;;;8.80;99.90;;;;;;5085824;28;20028;-72
2022/12/22 05:26:21;;;;;;;47.65;36.33;;;8.80;99.90;;;;;;5083157;28;20051;-72
2022/12/22 05:28:47;;;;;;;49.38;36.88;;;8.80;99.90;;;;;;5082710;28;20040;-72
2022/12/22 05:31:22;;;;;;;46.17;36.08;;;8.80;99.90;;;;;;5062075;28;20122;-72
2022/12/22 05:33:48;;;;;;;56.88;38.15;;;8.80;99.90;;;;;;5083844;28;20064;-72
2022/12/22 05:36:14;;;;;;;45.40;36.05;;;8.80;99.90;;;;;;5070783;28;20067;-72
2022/12/22 05:38:40;;;;;;;46.58;35.72;;;8.80;99.90;;;;;;5069559;28;20451;-72
2022/12/22 05:41:07;;;;;;;44.20;35.53;;;8.80;99.90;;;;;;5090186;28;20078;-72
2022/12/22 05:43:33;;;;;;;48.83;37.23;;;8.80;99.90;;;;;;5069575;28;20484;-72
2022/12/22 05:46:07;;;;;;;43.60;35.20;;;8.80;99.90;;;;;;5087564;28;20049;-72
2022/12/22 05:48:33;;;;;;;46.03;36.95;;;8.90;99.90;;;;;;5089157;28;20051;-72
2022/12/22 05:50:59;;;;;;;41.25;35.22;;;8.80;99.90;;;;;;5069111;28;20056;-73
2022/12/22 05:53:25;;;;;;;68.90;41.58;;;8.80;99.90;;;;;;5087303;28;20387;-72
2022/12/22 05:55:51;;;;;;;51.20;38.28;;;8.70;99.90;;;;;;5069773;28;20123;-72
2022/12/22 05:58:18;;;;;;;50.43;38.77;;;8.80;99.90;;;;;;5068740;28;20072;-72
2022/12/22 06:00:44;;;;;;;69.97;41.78;;;8.80;99.90;;;;;;5084986;28;20131;-72
2022/12/22 06:03:10;;;;;;;48.90;38.00;;;8.80;99.90;;;;;;5085619;28;20051;-72
2022/12/22 06:05:35;;;;;;;70.05;41.35;;;8.80;99.90;;;;;;5084961;28;20037;-72
2022/12/22 06:08:01;;;;;;;56.35;39.70;;;8.80;99.90;;;;;;5089720;28;20039;-72
2022/12/22 06:10:27;;;;;;;48.55;39.22;;;8.80;99.90;;;;;;5068306;28;20040;-72
2022/12/22 06:12:52;;;;;;;59.92;40.33;;;8.80;99.90;;;;;;5086768;28;20491;-72
2022/12/22 06:15:18;;;;;;;56.38;40.22;;;8.80;99.90;;;;;;5069522;28;20035;-72
2022/12/22 06:17:44;;;;;;;61.95;40.65;;;8.80;99.90;;;;;;5070475;28;20052;-72
2022/12/22 06:20:10;;;;;;;57.13;39.53;;;8.80;99.90;;;;;;5088321;28;20040;-72
2022/12/22 06:22:35;;;;;;;68.78;42.40;;;8.80;99.90;;;;;;5097712;27;20054;-72
2022/12/22 06:25:01;;;;;;;46.63;36.20;;;8.80;99.90;;;;;;5087362;28;20043;-72
2022/12/22 06:27:27;;;;;;;58.38;39.08;;;8.80;99.90;;;;;;5068824;28;20523;-72
2022/12/22 06:29:53;;;;;;;72.72;41.47;;;8.90;99.90;;;;;;5086858;28;20115;-71
2022/12/22 06:32:18;;;;;;;65.25;39.95;;;8.80;99.90;;;;;;5082965;28;20123;-72
2022/12/22 06:34:44;;;;;;;56.17;38.28;;;8.80;99.90;;;;;;5069749;28;20131;-72
2022/12/22 06:37:09;;;;;;;43.97;35.35;;;8.80;99.90;;;;;;5066783;28;20119;-72
2022/12/22 06:39:35;;;;;;;52.65;37.95;;;8.80;99.90;;;;;;5084475;28;20508;-72
2022/12/22 06:44:46;;;;;;;54.63;38.92;;;8.80;99.90;;;;;;5088970;28;20052;-71
2022/12/22 06:47:11;;;;;;;56.28;39.80;;;8.80;99.90;;;;;;5090267;28;20034;-72
2022/12/22 06:49:37;;;;;;;64.80;41.22;;;8.80;99.90;;;;;;5090387;28;20430;-72
2022/12/22 06:52:07;;;;;;;57.78;40.05;;;8.80;99.90;;;;;;5083981;28;20052;-72
2022/12/22 06:54:33;;;;;;;64.00;40.78;;;8.80;99.90;;;;;;5086321;28;20090;-72
2022/12/22 06:56:59;;;;;;;56.15;39.10;;;8.80;99.90;;;;;;5087424;28;20047;-72
2022/12/22 06:59:24;;;;;;;61.47;39.72;;;8.80;99.90;;;;;;5066813;28;20051;-72
2022/12/22 07:01:50;;;;;;;68.57;41.53;;;8.80;99.90;;;;;;5084845;28;20055;-72
2022/12/22 07:04:19;;;;;;;65.22;39.92;;;8.80;99.90;;;;;;5090055;28;20036;-72
2022/12/22 07:06:45;;;;;;;59.85;39.65;;;8.80;99.90;;;;;;5064341;28;20051;-72
2022/12/22 07:09:11;;;;;;;62.35;38.90;;;8.80;99.90;;;;;;5062268;28;20052;-72
2022/12/22 07:11:37;;;;;;;60.65;39.17;;;8.90;99.90;;;;;;5080702;28;20169;-71
2022/12/22 07:14:03;;;;;;;64.32;39.80;;;8.80;99.90;;;;;;5067094;28;20500;-72
2022/12/22 07:16:29;;;;;;;57.53;37.78;;;8.80;99.90;;;;;;5088106;28;20028;-72
2022/12/22 07:18:55;;;;;;;66.30;37.92;;;8.90;99.90;;;;;;5066137;28;20444;-72
2022/12/22 07:21:24;;;;;;;66.40;37.67;;;8.90;99.90;;;;;;5087061;28;20044;-72
2022/12/22 07:23:50;;;;;;;59.17;37.47;;;8.90;99.90;;;;;;5088349;28;20040;-71
2022/12/22 07:26:16;;;;;;;60.58;36.70;;;8.90;99.90;;;;;;5087650;28;20403;-70
2022/12/22 07:28:42;;;;;;;59.65;37.05;;;8.90;99.90;;;;;;5069270;28;20047;-71
2022/12/22 07:31:10;;;;;;;63.63;36.90;;;8.90;99.90;;;;;;5067305;28;20175;-71
2022/12/22 07:33:36;;;;;;;;;;;8.90;99.90;;;;;;5087537;28;20036;-71
2022/12/22 07:36:14;;;;;;;55.55;32.00;;;8.80;99.90;;;;;;5066703;28;19920;-71
2022/12/22 07:38:43;;;;;;;59.03;35.03;;;8.90;99.90;;;;;;5084344;28;20051;-71
2022/12/22 07:44:00;;;;;;;53.83;33.63;;;8.80;99.90;;;;;;5062746;28;20108;-71
2022/12/22 07:46:29;;;;;;;61.20;34.45;;;8.80;99.90;;;;;;5064967;28;20422;-71
2022/12/22 07:51:40;;;;;;;55.35;34.05;;;8.80;99.90;;;;;;5065956;28;20051;-71
2022/12/22 07:54:09;;;;;;;52.83;32.65;;;8.70;99.90;;;;;;5085316;28;20407;-71
2022/12/22 07:56:35;;;;;;;54.60;33.20;;;8.70;99.90;;;;;;5068182;28;20139;-71
2022/12/22 07:59:01;;;;;;;53.58;32.35;;;8.70;99.90;;;;;;5068364;28;20194;-71
2022/12/22 08:01:31;;;;;;;55.30;32.78;;;8.70;99.90;;;;;;5064476;28;20123;-71
2022/12/22 08:03:57;;;;;;;50.58;30.90;;;8.70;99.90;;;;;;5082169;28;20083;-71
2022/12/22 08:06:23;;;;;;;46.90;30.20;;;8.70;99.90;;;;;;5086952;28;20075;-71
2022/12/22 08:08:49;;;;;;;52.07;30.90;;;8.60;99.90;;;;;;5065106;28;20047;-72
2022/12/22 08:11:16;;;;;;;53.85;34.40;;;8.60;99.90;;;;;;5064351;28;20297;-71
2022/12/22 08:13:45;;;;;;;45.58;30.10;;;8.60;99.90;;;;;;5101944;27;20032;-71
2022/12/22 08:16:12;;;;;;;47.80;30.48;;;8.50;99.90;;;;;;5087245;28;20131;-70
2022/12/22 08:18:38;;;;;;;;;;;8.50;99.90;;;;;;5088671;28;20032;-70
2022/12/22 08:21:06;;;;;;;45.55;27.02;;;8.50;99.90;;;;;;5083325;28;19927;-70
2022/12/22 08:23:32;;;;;;;48.78;29.38;;;8.40;99.90;;;;;;5064494;28;20040;-71
2022/12/22 08:26:13;;;;;;;53.08;31.15;;;8.30;99.90;;;;;;5067288;28;20044;-72
2022/12/22 08:28:55;;;;;;;49.47;29.73;;;8.30;99.90;;;;;;5066066;28;20112;-72
2022/12/22 08:31:24;;;;;;;46.10;29.42;;;8.30;99.90;;;;;;5060145;28;20052;-76
2022/12/22 08:33:51;;;;;;;48.88;28.25;;;8.20;99.90;;;;;;5072882;28;20122;-75
2022/12/22 08:36:17;;;;;;;44.78;28.88;;;8.20;99.90;;;;;;5086873;28;20153;-76
2022/12/22 08:38:43;;;;;;;48.55;29.83;;;8.20;99.90;;;;;;5066729;28;20062;-76
2022/12/22 08:41:12;;;;;;;46.08;29.02;;;8.20;99.90;;;;;;5086982;28;20140;-75
2022/12/22 08:43:37;;;;;;;47.78;29.77;;;8.20;99.90;;;;;;5089458;28;20043;-76
2022/12/22 08:46:03;;;;;;;52.50;30.23;;;8.20;99.90;;;;;;5071279;28;20553;-75
2022/12/22 08:48:29;;;;;;;54.22;30.80;;;8.20;99.90;;;;;;5068214;28;20052;-75
2022/12/22 08:50:54;;;;;;;54.28;31.40;;;8.20;99.90;;;;;;5085570;28;20059;-75
2022/12/22 08:53:20;;;;;;;52.45;31.90;;;8.20;99.90;;;;;;5084362;28;20048;-75
2022/12/22 08:55:53;;;;;;;62.63;32.10;;;8.20;99.90;;;;;;5085975;28;20044;-75
2022/12/22 08:58:19;;;;;;;59.75;34.78;;;8.30;99.90;;;;;;5066487;28;20048;-79
2022/12/22 09:00:45;;;;;;;60.22;33.67;;;8.20;99.90;;;;;;5082373;28;20048;-79
2022/12/22 09:03:11;;;;;;;65.60;35.13;;;8.30;99.90;;;;;;5067442;28;20400;-79
2022/12/22 09:05:37;;;;;;;89.32;38.85;;;8.30;99.90;;;;;;5068504;28;20466;-80
2022/12/22 09:08:04;;;;;;;80.28;38.33;;;8.40;99.90;;;;;;5087511;28;20192;-81
2022/12/22 09:10:30;;;;;;;82.45;36.38;;;8.40;99.90;;;;;;5092146;28;20044;-76
2022/12/22 09:12:56;;;;;;;87.47;37.70;;;8.30;99.90;;;;;;5087257;28;20043;-77
2022/12/22 09:15:22;;;;;;;89.00;38.38;;;8.40;99.90;;;;;;5087682;28;20032;-75
2022/12/22 09:17:47;;;;;;;74.30;34.08;;;8.40;99.90;;;;;;5087724;28;20128;-76
2022/12/22 09:20:13;;;;;;;69.93;31.75;;;8.40;99.90;;;;;;5089985;28;20043;-78
2022/12/22 09:22:39;;;;;;;60.35;29.38;;;8.30;99.90;;;;;;5092361;28;20543;-77
2022/12/22 09:25:06;;;;;;;61.47;30.00;;;8.30;99.90;;;;;;5069882;28;20046;-76
2022/12/22 09:27:32;;;;;;;59.00;29.27;;;8.30;99.90;;;;;;5066774;28;20470;-77
2022/12/22 09:29:57;;;;;;;62.25;28.88;;;8.20;99.90;;;;;;5091858;28;20039;-76
2022/12/22 09:32:23;;;;;;;52.00;26.83;;;8.30;99.90;;;;;;5091474;28;20590;-78
2022/12/22 09:34:49;;;;;;;48.38;24.40;;;8.20;99.90;;;;;;5064518;28;20169;-81
2022/12/22 09:37:15;;;;;;;42.67;23.08;;;8.20;99.90;;;;;;5071792;28;20040;-81
2022/12/22 09:39:41;;;;;;;39.15;22.63;;;8.20;99.90;;;;;;5067379;28;20040;-75
2022/12/22 09:42:17;;;;;;;40.53;21.20;;;8.10;99.90;;;;;;5090865;28;20190;-73
2022/12/22 09:44:46;;;;;;;44.65;23.30;;;8.10;99.90;;;;;;5073417;28;20414;-75
2022/12/22 09:47:34;;;;;;;47.60;24.20;;;7.90;99.90;;;;;;5091392;28;20043;-74
2022/12/22 09:50:01;;;;;;;42.08;22.92;;;7.90;99.90;;;;;;5090238;28;20163;-74
2022/12/22 09:52:59;;;;;;;45.45;22.70;;;7.90;99.90;;;;;;5091514;28;20126;-74
2022/12/22 09:55:24;;;;;;;38.78;20.52;;;7.90;99.90;;;;;;5104918;27;20479;-74
2022/12/22 09:57:52;;;;;;;41.70;22.27;;;7.90;99.90;;;;;;5091275;28;20051;-79
2022/12/22 10:00:20;;;;;;;42.60;22.25;;;7.80;99.90;;;;;;5106767;28;20065;-75
2022/12/22 10:03:08;;;;;;;42.33;22.90;;;7.80;99.90;;;;;;5106379;28;20052;-78
2022/12/22 10:06:14;;;;;;;45.80;22.70;;;7.80;99.90;;;;;;5102947;27;20040;-73
2022/12/22 10:08:40;;;;;;;51.65;23.92;;;7.80;99.90;;;;;;5051919;28;20044;-74
2022/12/22 10:11:06;;;;;;;50.58;24.88;;;7.80;99.90;;;;;;5087892;28;20071;-73
2022/12/22 10:13:32;;;;;;;45.60;23.87;;;7.80;99.90;;;;;;5086929;28;20067;-79
2022/12/22 10:15:58;;;;;;;44.83;22.85;;;7.90;99.90;;;;;;5069142;28;20561;-73
2022/12/22 10:18:26;;;;;;;41.33;21.20;;;7.90;99.90;;;;;;5088043;28;20040;-73
2022/12/22 10:21:11;;;;;;;36.53;19.33;;;7.90;99.90;;;;;;5085219;28;20048;-78
2022/12/22 10:23:44;;;;;;;32.33;17.42;;;7.90;99.90;;;;;;5071577;28;20047;-79
2022/12/22 10:26:18;;;;;;;31.35;16.13;;;7.80;99.90;;;;;;5071948;28;20032;-73
2022/12/22 10:28:48;;;;;;;37.15;18.05;;;7.80;99.90;;;;;;5069511;28;20663;-73
2022/12/22 10:31:13;;;;;;;38.47;19.70;;;7.90;99.90;;;;;;5088524;28;20051;-75
2022/12/22 10:33:39;;;;;;;34.97;18.10;;;7.90;99.90;;;;;;5071506;28;20039;-75
2022/12/22 10:36:06;;;;;;;40.50;18.95;;;8.00;99.90;;;;;;5087549;28;20407;-83
2022/12/22 10:39:00;;;;;;;38.28;18.58;;;8.10;99.90;;;;;;5105443;28;20080;-80
2022/12/22 10:41:40;;;;;;;35.03;18.13;;;8.10;99.90;;;;;;5088253;28;20039;-86
2022/12/22 10:44:15;;;;;;;31.15;16.10;;;8.20;99.90;;;;;;5087387;28;20065;-80
2022/12/22 10:46:54;;;;;;;30.38;16.85;;;8.20;99.90;;;;;;5086533;28;20098;-82
2022/12/22 10:49:32;;;;;;;26.58;15.52;;;8.30;99.90;;;;;;5068081;28;20082;-78
2022/12/22 10:52:22;;;;;;;30.50;16.35;;;8.20;99.90;;;;;;5069968;28;20056;-77
2022/12/22 10:54:48;;;;;;;32.65;17.30;;;8.30;99.90;;;;;;5069337;28;20080;-81
2022/12/22 10:57:13;;;;;;;31.08;16.42;;;8.30;99.90;;;;;;5089072;28;20093;-83
2022/12/22 10:59:49;;;;;;;29.63;15.85;;;8.30;99.90;;;;;;5087897;28;20048;-82
2022/12/22 11:02:23;;;;;;;30.38;16.23;;;8.30;99.90;;;;;;5088970;28;20134;-85
2022/12/22 11:04:50;;;;;;;27.05;14.50;;;8.30;99.90;;;;;;5070512;28;20056;-77
2022/12/22 11:07:16;;;;;;;30.30;14.53;;;8.30;99.90;;;;;;5068331;28;20059;-84
2022/12/22 11:09:42;;;;;;;23.17;14.20;;;8.20;99.90;;;;;;5087648;28;20117;-81
2022/12/22 11:12:52;;;;;;;26.13;14.70;;;8.20;99.90;;;;;;5070211;28;20036;-75
2022/12/22 11:15:46;;;;;;;24.67;13.75;;;8.20;99.90;;;;;;5078215;28;20048;-74
2022/12/22 11:18:35;;;;;;;25.05;14.07;;;8.20;99.90;;;;;;5065339;28;20119;-78
2022/12/22 11:21:20;;;;;;;26.45;15.40;;;8.20;99.90;;;;;;5075222;28;20123;-75
2022/12/22 11:24:20;;;;;;;26.75;14.90;;;8.20;99.90;;;;;;5086377;28;20036;-76
2022/12/22 11:27:07;;;;;;;24.63;14.60;;;8.20;99.90;;;;;;5083689;28;20056;-78
2022/12/22 11:30:00;;;;;;;22.13;13.50;;;8.20;99.90;;;;;;5087783;28;20090;-77
2022/12/22 11:32:29;;;;;;;23.42;13.20;;;8.10;99.90;;;;;;5066244;28;20847;-78
2022/12/22 11:35:24;;;;;;;19.52;12.45;;;8.10;99.90;;;;;;5068323;28;20040;-78
2022/12/22 11:38:00;;;;;;;18.85;11.82;;;8.20;99.90;;;;;;5086913;28;20040;-78
2022/12/22 11:40:35;;;;;;;18.30;11.52;;;8.20;99.90;;;;;;5085719;28;20044;-78
2022/12/22 11:43:20;;;;;;;19.48;12.45;;;8.20;99.90;;;;;;5068034;28;20428;-77
2022/12/22 11:45:54;;;;;;;17.13;12.13;;;8.10;99.90;;;;;;5087616;28;20062;-77
2022/12/22 11:48:31;;;;;;;20.10;12.68;;;8.20;99.90;;;;;;5066683;28;20127;-78
2022/12/22 11:51:24;;;;;;;23.23;12.98;;;8.20;99.90;;;;;;5084710;28;20064;-77
2022/12/22 11:54:14;;;;;;;23.30;12.75;;;8.20;99.90;;;;;;5067348;28;20052;-75
2022/12/22 11:56:46;;;;;;;26.90;12.95;;;8.30;99.90;;;;;;5085279;28;20202;-75
2022/12/22 11:59:14;;;;;;;25.38;13.77;;;8.30;99.90;;;;;;5087186;28;20415;-76
2022/12/22 12:02:17;;;;;;;23.67;14.05;;;8.20;99.90;;;;;;5064813;28;20054;-73
2022/12/22 12:05:01;;;;;;;27.63;14.63;;;8.40;99.90;;;;;;5084600;28;20051;-74
2022/12/22 12:07:47;;;;;;;22.58;13.52;;;8.40;99.90;;;;;;5085747;28;20044;-72
2022/12/22 12:10:18;;;;;;;22.08;13.50;;;8.50;99.90;;;;;;5064706;28;20220;-74
2022/12/22 12:13:22;;;;;;;21.77;11.95;;;8.50;99.90;;;;;;5066784;28;20047;-74
2022/12/22 12:15:55;;;;;;;20.17;11.20;;;8.50;99.90;;;;;;5086228;28;20056;-75
2022/12/22 12:19:06;;;;;;;23.27;11.55;;;8.50;99.90;;;;;;5064344;28;20075;-75
2022/12/22 12:21:48;;;;;;;23.75;11.70;;;8.60;99.90;;;;;;5067774;28;20150;-75
2022/12/22 12:24:39;;;;;;;23.45;11.80;;;8.60;99.90;;;;;;5085049;28;20040;-75
2022/12/22 12:27:21;;;;;;;24.63;12.85;;;8.70;99.90;;;;;;5073223;28;20070;-75
2022/12/22 12:29:56;;;;;;;22.48;12.77;;;8.70;99.90;;;;;;5068045;28;20044;-75
2022/12/22 12:32:39;;;;;;;27.20;12.23;;;8.70;99.90;;;;;;5070276;28;20040;-75
2022/12/22 12:35:23;;;;;;;23.38;11.98;;;8.80;99.90;;;;;;5065836;28;20056;-74
2022/12/22 12:37:55;;;;;;;21.13;10.85;;;8.80;99.90;;;;;;5066661;28;20047;-75
2022/12/22 12:41:06;;;;;;;24.38;11.70;;;8.80;99.90;;;;;;5096699;28;20040;-75
2022/12/22 12:43:33;;;;;;;23.63;10.80;;;8.90;99.90;;;;;;5051799;28;20737;-74
2022/12/22 12:45:58;;;;;;;24.42;10.50;;;8.90;99.90;;;;;;5080467;28;20060;-75
2022/12/22 12:48:24;;;;;;;33.60;9.85;;;8.90;99.90;;;;;;5076026;28;20085;-76
2022/12/22 12:50:51;;;;;;;22.48;9.35;;;8.90;99.90;;;;;;5061733;28;20048;-74
2022/12/22 12:53:18;;;;;;;19.33;9.73;;;9.00;99.90;;;;;;5084594;28;20051;-79
2022/12/22 12:55:46;;;;;;;20.80;9.95;;;8.90;99.90;;;;;;5066579;28;20059;-74
2022/12/22 12:58:36;;;;;;;23.02;10.65;;;9.10;99.90;;;;;;5082040;28;20037;-74
2022/12/22 13:01:17;;;;;;;17.45;10.10;;;9.10;99.90;;;;;;5082098;28;20147;-75
2022/12/22 13:03:43;;;;;;;23.15;10.25;;;9.10;99.90;;;;;;5085480;28;20058;-75
2022/12/22 13:06:30;;;;;;;21.58;10.32;;;9.10;99.90;;;;;;5086148;28;20136;-75
2022/12/22 13:09:05;;;;;;;17.52;9.52;;;9.20;99.90;;;;;;5084329;28;20048;-74
2022/12/22 13:11:34;;;;;;;17.48;10.05;;;9.20;99.90;;;;;;5076314;28;20036;-80
2022/12/22 13:14:00;;;;;;;19.10;10.13;;;9.20;99.90;;;;;;5080333;28;20048;-74
2022/12/22 13:16:28;;;;;;;19.92;9.48;;;9.20;99.90;;;;;;5080811;28;20111;-76
2022/12/22 13:18:58;;;;;;;21.30;9.75;;;9.20;99.90;;;;;;5065732;28;20056;-75
2022/12/22 13:21:37;;;;;;;21.98;9.70;;;9.30;99.90;;;;;;5065370;28;20145;-75
2022/12/22 13:24:28;;;;;;;17.88;9.35;;;9.30;99.90;;;;;;5083129;28;20063;-75
2022/12/22 13:26:59;;;;;;;21.30;10.85;;;9.30;99.90;;;;;;5085018;28;20056;-78
2022/12/22 13:29:41;;;;;;;22.27;10.18;;;9.30;99.90;;;;;;5064425;28;20047;-81
2022/12/22 13:32:28;;;;;;;24.10;10.75;;;9.30;99.90;;;;;;5063284;28;20062;-79
2022/12/22 13:34:57;;;;;;;19.55;9.23;;;9.30;99.90;;;;;;5084511;28;20402;-82
2022/12/22 13:37:27;;;;;;;18.23;10.57;;;9.40;99.90;;;;;;5061878;28;20457;-74
2022/12/22 13:40:11;;;;;;;20.58;10.77;;;9.30;99.90;;;;;;5080620;28;20047;-75
2022/12/22 13:42:41;;;;;;;18.92;10.02;;;9.40;99.90;;;;;;5096228;28;20461;-73
2022/12/22 13:45:14;;;;;;;19.92;10.30;;;9.40;99.90;;;;;;5096232;28;20051;-73
2022/12/22 13:47:42;;;;;;;18.35;9.20;;;9.40;99.90;;;;;;5058234;28;20498;-75
2022/12/22 13:50:26;;;;;;;17.05;8.95;;;9.40;99.90;;;;;;5085041;28;20063;-75
2022/12/22 13:52:54;;;;;;;17.52;9.52;;;9.40;99.90;;;;;;5078342;28;20113;-76
2022/12/22 13:55:25;;;;;;;20.77;9.05;;;9.40;99.90;;;;;;5083791;28;20049;-74
2022/12/22 13:57:52;;;;;;;18.45;8.93;;;9.30;99.90;;;;;;5069024;28;20055;-75
2022/12/22 14:00:24;;;;;;;19.13;8.80;;;9.40;99.90;;;;;;5070670;28;20559;-77
2022/12/22 14:02:50;;;;;;;18.20;8.77;;;9.40;99.90;;;;;;5086419;28;20075;-78
2022/12/22 14:05:17;;;;;;;18.88;8.55;;;9.30;99.90;;;;;;5069319;28;20047;-77
2022/12/22 14:07:58;;;;;;;19.50;8.20;;;9.40;99.90;;;;;;5069936;28;20052;-77
2022/12/22 14:10:38;;;;;;;14.35;8.23;;;9.30;99.90;;;;;;5089198;28;20095;-77
2022/12/22 14:13:10;;;;;;;17.45;7.88;;;9.30;99.90;;;;;;5087217;28;20052;-77
2022/12/22 14:15:35;;;;;;;16.52;8.43;;;9.30;99.90;;;;;;5087152;28;20921;-77
2022/12/22 14:18:01;;;;;;;18.45;7.70;;;9.20;99.90;;;;;;5085491;28;20043;-77
2022/12/22 14:20:35;;;;;;;16.67;7.95;;;9.30;99.90;;;;;;5088419;28;20036;-76
2022/12/22 14:23:06;;;;;;;16.27;8.15;;;9.20;99.90;;;;;;5084957;28;20040;-77
2022/12/22 14:25:41;;;;;;;18.58;8.70;;;9.10;99.90;;;;;;5066599;28;20408;-77
2022/12/22 14:28:19;;;;;;;16.00;7.90;;;9.10;99.90;;;;;;5089166;28;20044;-78
2022/12/22 14:30:49;;;;;;;19.20;8.80;;;9.10;99.90;;;;;;5085553;28;20044;-77
2022/12/22 14:33:26;;;;;;;16.27;8.95;;;9.00;99.90;;;;;;5089232;28;20040;-75
2022/12/22 14:36:10;;;;;;;16.05;9.23;;;9.00;99.90;;;;;;5088220;28;20063;-75
2022/12/22 14:38:42;;;;;;;19.77;9.32;;;9.00;99.90;;;;;;5079624;28;20040;-75
2022/12/22 14:41:40;;;;;;;17.83;10.00;;;9.00;99.90;;;;;;5068403;28;20035;-73
2022/12/22 14:44:13;;;;;;;18.33;9.95;;;8.90;99.90;;;;;;5084930;28;20036;-74
2022/12/22 14:46:40;;;;;;;18.17;9.57;;;8.90;99.90;;;;;;5087548;28;20333;-77
2022/12/22 14:49:16;;;;;;;19.45;9.75;;;8.90;99.90;;;;;;5067976;28;20043;-75
2022/12/22 14:51:50;;;;;;;17.90;9.65;;;8.70;99.90;;;;;;5067941;28;20056;-74
2022/12/22 14:54:24;;;;;;;19.00;10.45;;;8.80;99.90;;;;;;5087583;28;20081;-74
2022/12/22 14:56:52;;;;;;;19.23;9.63;;;8.80;99.90;;;;;;5083023;28;20120;-76
2022/12/22 14:59:27;;;;;;;19.13;8.93;;;8.70;99.90;;;;;;5083685;28;20071;-74
2022/12/22 15:02:19;;;;;;;16.38;9.57;;;8.70;99.90;;;;;;5081574;28;20051;-75
2022/12/22 15:04:45;;;;;;;19.00;9.82;;;8.60;99.90;;;;;;5083814;28;20040;-75
2022/12/22 15:07:19;;;;;;;18.70;9.15;;;8.60;99.90;;;;;;5088428;28;20101;-74
2022/12/22 15:09:45;;;;;;;14.32;7.90;;;8.60;99.90;;;;;;5080939;28;20044;-79
2022/12/22 15:12:17;;;;;;;18.48;9.07;;;8.50;99.90;;;;;;5069912;28;20553;-77
2022/12/22 15:14:47;;;;;;;15.93;8.27;;;8.50;99.90;;;;;;5067739;28;20051;-76
2022/12/22 15:17:22;;;;;;;16.60;8.75;;;8.50;99.90;;;;;;5087428;28;20044;-75
2022/12/22 15:19:48;;;;;;;16.75;10.55;;;8.40;99.90;;;;;;5085747;28;20051;-78
2022/12/22 15:22:14;;;;;;;18.38;11.15;;;8.40;99.90;;;;;;5086703;28;20051;-75
2022/12/22 15:24:39;;;;;;;16.10;9.95;;;8.30;99.90;;;;;;5085855;28;20044;-76
2022/12/22 15:27:05;;;;;;;20.42;10.48;;;8.30;99.90;;;;;;5087263;28;20454;-76
2022/12/22 15:29:30;;;;;;;16.83;10.27;;;8.20;99.90;;;;;;5067634;28;20036;-74
2022/12/22 15:31:56;;;;;;;21.48;12.07;;;8.20;99.90;;;;;;5069113;28;20043;-75
2022/12/22 15:34:26;;;;;;;20.30;11.15;;;8.20;99.90;;;;;;5085821;28;20043;-76
2022/12/22 15:36:52;;;;;;;15.65;11.77;;;8.20;99.90;;;;;;5086926;28;20039;-76
2022/12/22 15:39:19;;;;;;;28.45;22.70;;;8.20;99.90;;;;;;5100640;28;20396;-75
2022/12/22 15:41:45;;;;;;;;;;;8.10;99.90;;;;;;5067216;28;20048;-77
2022/12/22 15:44:11;;;;;;;19.85;12.45;;;8.20;99.90;;;;;;5086524;28;19919;-79
2022/12/22 15:46:40;;;;;;;19.33;12.30;;;8.20;99.90;;;;;;5088106;28;20048;-76
2022/12/22 15:49:18;;;;;;;19.15;11.48;;;8.20;99.90;;;;;;5069430;28;20043;-76
2022/12/22 15:51:47;;;;;;;18.77;11.52;;;8.20;99.90;;;;;;5068709;28;20060;-79
2022/12/22 15:54:14;;;;;;;18.27;12.63;;;8.20;99.90;;;;;;5082370;28;20046;-75
2022/12/22 15:56:41;;;;;;;21.70;12.73;;;8.30;99.90;;;;;;5058976;28;20129;-80
2022/12/22 15:59:14;;;;;;;23.07;13.47;;;8.30;99.90;;;;;;5084426;28;20123;-79
2022/12/22 16:01:39;;;;;;;19.15;12.65;;;8.30;99.90;;;;;;5083555;28;20313;-77
2022/12/22 16:04:06;;;;;;;20.70;13.70;;;8.30;99.90;;;;;;5068809;28;20434;-78
2022/12/22 16:06:31;;;;;;;32.17;22.30;;;8.30;99.90;;;;;;5068473;28;20040;-75
2022/12/22 16:08:57;;;;;;;26.00;17.83;;;8.30;99.90;;;;;;5082964;28;20085;-79
2022/12/22 16:11:22;;;;;;;21.80;14.07;;;8.30;99.90;;;;;;5082262;28;20043;-76
2022/12/22 16:13:49;;;;;;;24.60;14.40;;;8.40;99.90;;;;;;5080041;28;20040;-77
2022/12/22 16:16:16;;;;;;;24.48;15.65;;;8.40;99.90;;;;;;5066190;28;20649;-77
2022/12/22 16:18:41;;;;;;;23.35;16.55;;;8.30;99.90;;;;;;5100616;28;20105;-76
2022/12/22 16:21:14;;;;;;;26.20;17.08;;;8.30;99.90;;;;;;5068758;28;20044;-77
2022/12/22 16:23:41;;;;;;;25.88;17.65;;;8.30;99.90;;;;;;5087039;28;20058;-74
2022/12/22 16:26:10;;;;;;;25.48;17.95;;;8.30;99.90;;;;;;5085565;28;20671;-76
2022/12/22 16:28:36;;;;;;;25.83;18.65;;;8.30;99.90;;;;;;5098902;28;20117;-76
2022/12/22 16:31:01;;;;;;;29.20;19.27;;;8.30;99.90;;;;;;5067882;28;20052;-77
2022/12/22 16:33:27;;;;;;;27.05;19.13;;;8.40;99.90;;;;;;5066491;28;20127;-76
2022/12/22 16:35:53;;;;;;;27.23;19.30;;;8.30;99.90;;;;;;5067604;28;20130;-77
2022/12/22 16:38:19;;;;;;;30.17;21.77;;;8.30;99.90;;;;;;5083449;28;21012;-75